Time;durP1;ratioP1;P1;durP2;ratioP2;P2;SDS_P1;SDS_P2;PMS_P1;PMS_P2;Temp;Humidity;BMP_temperature;BMP_pressure;BME280_temperature;BME280_humidity;BME280_pressure;Samples;Min_cycle;Max_cycle;Signal;HPM_P1;HPM_P2
2022/01/22 00:00:01;;;;;;;2.38;0.80;;;;;;;;;;5037545;28;20401;-64
2022/01/22 00:02:39;;;;;;;1.98;0.63;;;;;;;;;;5038080;28;20064;-63
2022/01/22 00:05:12;;;;;;;3.53;0.77;;;;;;;;;;5037320;28;20038;-63
2022/01/22 00:07:42;;;;;;;1.15;0.55;;;;;;;;;;5018719;28;20042;-63
2022/01/22 00:10:14;;;;;;;8.40;0.80;;;;;;;;;;5037399;28;20041;-63
2022/01/22 00:15:24;;;;;;;1.70;0.60;;;;;;;;;;5037276;28;20401;-63
2022/01/22 00:17:55;;;;;;;3.25;0.70;;;;;;;;;;5018842;28;20085;-63
2022/01/22 00:20:28;;;;;;;2.03;0.70;;;;;;;;;;5037369;28;20052;-68
2022/01/22 00:22:58;;;;;;;5.80;0.82;;;;;;;;;;5019366;28;20060;-62
2022/01/22 00:25:29;;;;;;;2.60;0.43;;;;;;;;;;5037413;28;20045;-62
2022/01/22 00:28:03;;;;;;;1.75;0.50;;;;;;;;;;5037295;28;20049;-63
2022/01/22 00:30:34;;;;;;;1.58;1.00;;;;;;;;;;5002459;28;21005;-62
2022/01/22 00:33:05;;;;;;;2.22;0.60;;;;;;;;;;5037165;28;20402;-63
2022/01/22 00:35:36;;;;;;;2.25;0.57;;;;;;;;;;5035189;28;20421;-63
2022/01/22 00:38:06;;;;;;;3.75;0.82;;;;;;;;;;5036250;28;20060;-63
2022/01/22 00:40:37;;;;;;;2.92;0.82;;;;;;;;;;5014607;28;20057;-62
2022/01/22 00:43:07;;;;;;;4.43;0.80;;;;;;;;;;5014858;28;20058;-62
2022/01/22 00:45:38;;;;;;;1.45;0.63;;;;;;;;;;5015179;28;20062;-62
2022/01/22 00:48:08;;;;;;;2.22;1.00;;;;;;;;;;4982504;28;20057;-62
2022/01/22 00:50:39;;;;;;;2.15;0.90;;;;;;;;;;5014760;28;20057;-62
2022/01/22 00:53:09;;;;;;;3.30;0.82;;;;;;;;;;4982212;28;20629;-63
2022/01/22 00:55:39;;;;;;;2.75;0.80;;;;;;;;;;4979978;28;20521;-62
2022/01/22 00:58:10;;;;;;;2.67;0.60;;;;;;;;;;4975753;28;20407;-63
2022/01/22 01:00:40;;;;;;;7.05;0.90;;;;;;;;;;4976531;28;20046;-62
2022/01/22 01:03:11;;;;;;;5.07;0.82;;;;;;;;;;4959692;28;20643;-64
2022/01/22 01:05:42;;;;;;;4.90;0.63;;;;;;;;;;4960513;28;20054;-62
2022/01/22 01:08:12;;;;;;;6.95;0.98;;;;;;;;;;4972292;28;20058;-64
2022/01/22 01:10:45;;;;;;;4.70;0.80;;;;;;;;;;4972354;28;20050;-65
2022/01/22 01:13:15;;;;;;;10.80;1.50;;;;;;;;;;4972549;28;20058;-62
2022/01/22 01:15:59;;;;;;;6.65;1.17;;;;;;;;;;4972295;28;20094;-65
2022/01/22 01:32:48;;;;;;;9.05;1.52;;;;;;;;;;4972197;28;20057;-63
2022/01/22 01:35:18;;;;;;;7.97;1.23;;;;;;;;;;4993804;28;20074;-63
2022/01/22 01:37:51;;;;;;;9.38;1.63;;;;;;;;;;4991607;28;20066;-63
2022/01/22 01:40:24;;;;;;;6.50;1.35;;;;;;;;;;4999091;28;20062;-62
2022/01/22 01:43:07;;;;;;;6.93;1.27;;;;;;;;;;4971491;28;20426;-63
2022/01/22 01:45:38;;;;;;;2.92;0.80;;;;;;;;;;4971452;28;20094;-65
2022/01/22 01:48:14;;;;;;;5.35;0.77;;;;;;;;;;4971604;28;20055;-66
2022/01/22 01:50:45;;;;;;;5.22;0.70;;;;;;;;;;4971789;28;20069;-63
2022/01/22 01:58:29;;;;;;;2.28;0.70;;;;;;;;;;4951803;29;20051;-63
2022/01/22 02:01:05;;;;;;;1.52;0.77;;;;;;;;;;4952104;29;20447;-63
2022/01/22 02:03:39;;;;;;;2.53;0.63;;;;;;;;;;4970994;28;20047;-63
2022/01/22 02:06:19;;;;;;;3.92;0.73;;;;;;;;;;4971429;28;20054;-63
2022/01/22 02:08:49;;;;;;;2.53;0.73;;;;;;;;;;4951417;29;20043;-63
2022/01/22 02:11:26;;;;;;;1.42;0.50;;;;;;;;;;4919848;29;20052;-63
2022/01/22 02:23:30;;;;;;;1.52;0.80;;;;;;;;;;4875519;29;20418;-64
2022/01/22 02:25:46;;;;;;;4.20;0.68;;;;;;;;;;4905858;29;20057;-64
2022/01/22 02:28:17;;;;;;;4.28;0.68;;;;;;;;;;4902435;29;20524;-63
2022/01/22 02:30:50;;;;;;;3.75;1.02;;;;;;;;;;4899179;29;20057;-64
2022/01/22 02:39:16;;;;;;;4.32;1.27;;;;;;;;;;4862626;29;20061;-72
2022/01/22 02:41:51;;;;;;;5.20;1.02;;;;;;;;;;4869671;29;20065;-70
2022/01/22 02:44:35;;;;;;;3.47;0.93;;;;;;;;;;4873446;29;20061;-64
2022/01/22 02:47:10;;;;;;;3.58;1.02;;;;;;;;;;4860362;29;20521;-65
2022/01/22 02:49:41;;;;;;;3.97;1.00;;;;;;;;;;4908049;29;20052;-64
2022/01/22 02:52:17;;;;;;;4.53;1.00;;;;;;;;;;4875270;29;20069;-64
2022/01/22 02:54:49;;;;;;;4.53;1.20;;;;;;;;;;4875216;29;20049;-64
2022/01/22 02:57:19;;;;;;;3.90;1.23;;;;;;;;;;4890526;29;20529;-62
2022/01/22 02:59:54;;;;;;;9.05;0.93;;;;;;;;;;4820232;29;20058;-69
2022/01/22 03:02:25;;;;;;;3.67;1.00;;;;;;;;;;4820230;29;20062;-64
2022/01/22 03:04:56;;;;;;;4.20;0.95;;;;;;;;;;4811896;29;20062;-64
2022/01/22 03:07:26;;;;;;;3.05;0.98;;;;;;;;;;4786642;29;20747;-63
2022/01/22 03:10:01;;;;;;;2.63;1.08;;;;;;;;;;4802259;29;20515;-63
2022/01/22 03:29:16;;;;;;;3.38;1.05;;;;;;;;;;4858818;29;20072;-64
2022/01/22 03:31:48;;;;;;;5.07;1.23;;;;;;;;;;4878130;29;20048;-64
2022/01/22 03:34:18;;;;;;;4.00;1.13;;;;;;;;;;4877722;29;20540;-64
2022/01/22 03:36:49;;;;;;;4.18;1.30;;;;;;;;;;4896845;29;20448;-64
2022/01/22 03:39:20;;;;;;;3.83;0.98;;;;;;;;;;4911949;29;20067;-64
2022/01/22 03:41:52;;;;;;;2.78;0.90;;;;;;;;;;4912615;29;20137;-63
2022/01/22 03:44:23;;;;;;;3.85;1.13;;;;;;;;;;4892567;29;20056;-64
2022/01/22 03:46:57;;;;;;;3.78;1.00;;;;;;;;;;4908661;29;20129;-64
2022/01/22 03:49:27;;;;;;;4.53;0.90;;;;;;;;;;4911790;29;20056;-63
2022/01/22 03:51:57;;;;;;;2.72;1.77;;;;;;;;;;4907028;29;20056;-64
2022/01/22 03:54:28;;;;;;;3.72;0.90;;;;;;;;;;4890784;29;20052;-64
2022/01/22 03:56:59;;;;;;;4.18;1.05;;;;;;;;;;4874594;29;20060;-64
2022/01/22 03:59:38;;;;;;;3.00;0.90;;;;;;;;;;4874557;29;20068;-64
2022/01/22 04:05:07;;;;;;;3.88;0.82;;;;;;;;;;4890438;29;20061;-64
2022/01/22 04:10:30;;;;;;;2.65;0.70;;;;;;;;;;4874707;29;20049;-64
2022/01/22 04:13:06;;;;;;;2.63;0.82;;;;;;;;;;4889505;29;20056;-64
2022/01/22 04:15:39;;;;;;;2.60;0.93;;;;;;;;;;4910395;29;20056;-63
2022/01/22 04:27:00;;;;;;;4.43;0.90;;;;;;;;;;4893125;29;20060;-64
2022/01/22 04:29:28;;;;;;;5.43;1.63;;;;;;;;;;4893188;29;20063;-64
2022/01/22 04:31:58;;;;;;;3.25;1.30;;;;;;;;;;4906242;29;20051;-63
2022/01/22 04:34:28;;;;;;;5.03;1.27;;;;;;;;;;4969339;28;20054;-63
2022/01/22 04:36:59;;;;;;;4.13;0.98;;;;;;;;;;4973138;28;20051;-64
2022/01/22 04:39:30;;;;;;;5.03;1.13;;;;;;;;;;4941206;28;20059;-64
2022/01/22 04:42:00;;;;;;;7.38;1.13;;;;;;;;;;4972687;28;20050;-64
2022/01/22 04:44:37;;;;;;;3.88;1.42;;;;;;;;;;4972701;28;20050;-64
2022/01/22 04:52:35;;;;;;;4.45;1.20;;;;;;;;;;4953032;29;20051;-63
2022/01/22 04:55:08;;;;;;;5.95;1.17;;;;;;;;;;4953213;29;20496;-63
2022/01/22 04:57:46;;;;;;;5.13;1.23;;;;;;;;;;4953624;29;20059;-64
2022/01/22 05:00:19;;;;;;;4.45;1.40;;;;;;;;;;4953134;29;20074;-64
2022/01/22 05:03:08;;;;;;;9.23;1.58;;;;;;;;;;4953432;28;20055;-64
2022/01/22 05:05:45;;;;;;;3.95;1.17;;;;;;;;;;4896479;29;20200;-64
2022/01/22 05:08:33;;;;;;;2.10;1.20;;;;;;;;;;4914731;29;20464;-64
2022/01/22 05:11:08;;;;;;;2.97;1.20;;;;;;;;;;4896056;29;20430;-64
2022/01/22 05:13:41;;;;;;;6.72;1.33;;;;;;;;;;4880949;29;20057;-64
2022/01/22 05:16:13;;;;;;;4.50;1.38;;;;;;;;;;4865318;29;20048;-64
2022/01/22 05:18:56;;;;;;;4.55;1.40;;;;;;;;;;4926877;29;20052;-64
2022/01/22 05:21:29;;;;;;;5.22;1.52;;;;;;;;;;4918117;29;20048;-64
2022/01/22 05:24:04;;;;;;;5.35;1.50;;;;;;;;;;4864527;29;20122;-64
2022/01/22 05:38:22;;;;;;;3.42;1.23;;;;;;;;;;4952437;29;20047;-64
2022/01/22 05:40:52;;;;;;;4.93;1.67;;;;;;;;;;4864854;29;20059;-64
2022/01/22 05:43:22;;;;;;;4.45;1.25;;;;;;;;;;4896119;29;20060;-64
2022/01/22 05:45:53;;;;;;;3.83;1.42;;;;;;;;;;4895347;29;20057;-65
2022/01/22 05:48:23;;;;;;;7.05;1.73;;;;;;;;;;4876627;29;20429;-64
2022/01/22 05:51:01;;;;;;;5.80;1.27;;;;;;;;;;4865167;29;20058;-64
2022/01/22 05:53:56;;;;;;;4.45;1.40;;;;;;;;;;4857723;29;20073;-64
2022/01/22 06:02:01;;;;;;;2.70;1.45;;;;;;;;;;4848868;29;20388;-64
2022/01/22 06:04:32;;;;;;;3.97;1.23;;;;;;;;;;4858090;29;20069;-64
2022/01/22 06:07:08;;;;;;;4.13;1.50;;;;;;;;;;4857446;29;20551;-63
2022/01/22 06:09:51;;;;;;;9.00;1.35;;;;;;;;;;4853773;29;20128;-64
2022/01/22 06:15:13;;;;;;;10.40;1.50;;;;;;;;;;4835940;29;20058;-65
2022/01/22 06:18:10;;;;;;;7.10;1.83;;;;;;;;;;4850021;29;20062;-64
2022/01/22 06:20:40;;;;;;;7.70;1.50;;;;;;;;;;4866356;29;20054;-64
2022/01/22 06:23:10;;;;;;;5.50;1.65;;;;;;;;;;4835828;29;21184;-64
2022/01/22 06:25:41;;;;;;;5.43;1.35;;;;;;;;;;4805653;29;20054;-64
2022/01/22 06:28:12;;;;;;;5.07;1.38;;;;;;;;;;4838560;29;20061;-64
2022/01/22 06:30:46;;;;;;;;;;;;;;;;;;4865144;29;20057;-64
2022/01/22 06:33:16;;;;;;;8.27;1.67;;;;;;;;;;4856794;29;19924;-64
2022/01/22 06:35:47;;;;;;;9.02;1.40;;;;;;;;;;4830206;29;20414;-64
2022/01/22 06:38:18;;;;;;;6.38;1.58;;;;;;;;;;4844611;29;20041;-65
2022/01/22 06:44:34;;;;;;;5.13;1.40;;;;;;;;;;4887320;29;20067;-64
2022/01/22 06:47:25;;;;;;;5.43;1.60;;;;;;;;;;4885237;29;20061;-64
2022/01/22 06:50:01;;;;;;;4.22;1.50;;;;;;;;;;4894625;29;20064;-64
2022/01/22 06:52:47;;;;;;;6.38;1.33;;;;;;;;;;4880704;29;20053;-64
2022/01/22 06:55:35;;;;;;;5.85;1.65;;;;;;;;;;4893874;29;20049;-64
2022/01/22 06:58:06;;;;;;;5.70;1.20;;;;;;;;;;4897530;29;20063;-64
2022/01/22 07:00:40;;;;;;;5.00;1.48;;;;;;;;;;4931679;29;20504;-64
2022/01/22 07:03:25;;;;;;;4.32;1.70;;;;;;;;;;4931710;29;20056;-64
2022/01/22 07:06:28;;;;;;;7.25;1.65;;;;;;;;;;4881276;29;20077;-64
2022/01/22 07:08:59;;;;;;;6.53;1.55;;;;;;;;;;4876812;29;20058;-64
2022/01/22 07:11:32;;;;;;;6.50;1.75;;;;;;;;;;4888760;29;20060;-64
2022/01/22 07:14:03;;;;;;;8.40;1.63;;;;;;;;;;4847784;29;20056;-64
2022/01/22 07:16:34;;;;;;;5.38;1.55;;;;;;;;;;4846115;29;20061;-64
2022/01/22 07:19:22;;;;;;;8.30;1.45;;;;;;;;;;4828118;29;20051;-64
2022/01/22 07:22:09;;;;;;;8.75;1.55;;;;;;;;;;4829411;29;20054;-64
2022/01/22 07:24:56;;;;;;;5.03;1.35;;;;;;;;;;4837949;29;20077;-64
2022/01/22 07:27:26;;;;;;;5.78;1.30;;;;;;;;;;4838296;29;20065;-64
2022/01/22 07:29:57;;;;;;;7.85;1.85;;;;;;;;;;4856273;29;20524;-64
2022/01/22 07:32:33;;;;;;;11.93;1.52;;;;;;;;;;4856313;29;20058;-64
2022/01/22 07:35:05;;;;;;;10.27;1.75;;;;;;;;;;4856143;29;20212;-64
2022/01/22 07:37:39;;;;;;;4.95;1.40;;;;;;;;;;4870818;29;20053;-64
2022/01/22 07:40:17;;;;;;;5.20;1.50;;;;;;;;;;4884316;29;20053;-64
2022/01/22 07:42:55;;;;;;;7.68;1.45;;;;;;;;;;4860204;29;20073;-64
2022/01/22 07:45:48;;;;;;;5.60;1.48;;;;;;;;;;4856447;29;20049;-64
2022/01/22 07:48:24;;;;;;;5.68;1.65;;;;;;;;;;4877557;29;20049;-64
2022/01/22 07:51:14;;;;;;;5.10;1.50;;;;;;;;;;4894650;29;20056;-64
2022/01/22 07:53:46;;;;;;;3.47;1.30;;;;;;;;;;4906005;29;20052;-64
2022/01/22 07:56:20;;;;;;;4.78;1.98;;;;;;;;;;4885714;29;20523;-64
2022/01/22 07:58:51;;;;;;;3.83;1.40;;;;;;;;;;4874384;29;20069;-64
2022/01/22 08:01:23;;;;;;;5.75;1.45;;;;;;;;;;4893447;29;20439;-64
2022/01/22 08:04:12;;;;;;;6.88;1.60;;;;;;;;;;4912593;29;20055;-64
2022/01/22 08:07:04;;;;;;;5.63;1.77;;;;;;;;;;4910823;29;20056;-64
2022/01/22 08:10:02;;;;;;;5.15;1.55;;;;;;;;;;4888477;29;20069;-64
2022/01/22 08:12:49;;;;;;;10.93;1.63;;;;;;;;;;4897181;29;20048;-64
2022/01/22 08:15:21;;;;;;;6.82;1.48;;;;;;;;;;4906153;29;20060;-64
2022/01/22 08:17:51;;;;;;;8.52;1.75;;;;;;;;;;4897347;29;20057;-64
2022/01/22 08:20:22;;;;;;;6.18;1.98;;;;;;;;;;4912242;29;20057;-65
2022/01/22 08:22:54;;;;;;;6.93;1.95;;;;;;;;;;4881179;29;20057;-64
2022/01/22 08:25:45;;;;;;;9.75;1.95;;;;;;;;;;4897731;29;20052;-65
2022/01/22 08:31:25;;;;;;;4.82;1.95;;;;;;;;;;4923672;29;20052;-64
2022/01/22 08:36:54;;;;;;;9.23;1.98;;;;;;;;;;4921779;29;20057;-64
2022/01/22 08:39:27;;;;;;;9.88;2.58;;;;;;;;;;4915074;29;20055;-64
2022/01/22 08:41:57;;;;;;;10.90;2.03;;;;;;;;;;4931150;29;20048;-64
2022/01/22 08:44:28;;;;;;;9.32;1.88;;;;;;;;;;4902156;29;20084;-64
2022/01/22 08:47:00;;;;;;;9.82;1.90;;;;;;;;;;4914939;29;20051;-64
2022/01/22 08:49:31;;;;;;;12.07;1.98;;;;;;;;;;4934122;29;20160;-64
2022/01/22 08:52:12;;;;;;;9.15;2.00;;;;;;;;;;4896032;29;20445;-64
2022/01/22 08:54:45;;;;;;;6.38;2.10;;;;;;;;;;4896188;29;20056;-64
2022/01/22 08:57:18;;;;;;;6.90;1.90;;;;;;;;;;4846983;29;20834;-64
2022/01/22 09:00:00;;;;;;;8.35;1.95;;;;;;;;;;4891510;29;20056;-65
2022/01/22 09:02:30;;;;;;;4.00;1.77;;;;;;;;;;4895664;29;20061;-64
2022/01/22 09:05:25;;;;;;;8.75;2.65;;;;;;;;;;4878195;29;20056;-64
2022/01/22 09:08:15;;;;;;;7.65;2.20;;;;;;;;;;4890529;29;20417;-64
2022/01/22 09:11:10;;;;;;;9.55;3.45;;;;;;;;;;4889814;29;20061;-65
2022/01/22 09:14:00;;;;;;;10.35;2.33;;;;;;;;;;4903412;29;20615;-64
2022/01/22 09:16:38;;;;;;;10.15;2.65;;;;;;;;;;4900742;29;20531;-64
2022/01/22 09:19:11;;;;;;;9.10;2.10;;;;;;;;;;4914385;29;20053;-65
2022/01/22 09:21:46;;;;;;;11.60;2.22;;;;;;;;;;4902901;29;20485;-64
2022/01/22 09:24:16;;;;;;;12.07;2.40;;;;;;;;;;4929762;29;20062;-64
2022/01/22 09:26:52;;;;;;;11.13;1.83;;;;;;;;;;4920520;29;20054;-64
2022/01/22 09:29:24;;;;;;;7.20;2.20;;;;;;;;;;4930512;29;20051;-64
2022/01/22 09:31:55;;;;;;;6.07;2.38;;;;;;;;;;4930424;29;20050;-64
2022/01/22 09:34:43;;;;;;;9.68;2.50;;;;;;;;;;4920555;29;20052;-64
2022/01/22 09:37:25;;;;;;;6.50;2.60;;;;;;;;;;4902276;29;20417;-64
2022/01/22 09:40:29;;;;;;;12.00;2.55;;;;;;;;;;4884392;29;20061;-64
2022/01/22 09:43:18;;;;;;;7.90;2.42;;;;;;;;;;4907136;29;20052;-64
2022/01/22 09:46:08;;;;;;;7.35;2.30;;;;;;;;;;4882097;29;20429;-64
2022/01/22 09:49:08;;;;;;;6.97;2.60;;;;;;;;;;4914642;29;20387;-64
2022/01/22 09:51:55;;;;;;;7.28;2.33;;;;;;;;;;4914364;29;20425;-64
2022/01/22 09:54:45;;;;;;;8.27;2.45;;;;;;;;;;4908214;29;20063;-64
2022/01/22 09:57:28;;;;;;;8.30;2.72;;;;;;;;;;4913848;29;20044;-64
2022/01/22 10:00:22;;;;;;;4.43;2.15;;;;;;;;;;4914693;29;20056;-64
2022/01/22 10:02:58;;;;;;;4.63;2.30;;;;;;;;;;4894438;29;20059;-65
2022/01/22 10:05:43;;;;;;;10.20;2.72;;;;;;;;;;4875091;29;20049;-64
2022/01/22 10:08:34;;;;;;;7.93;2.22;;;;;;;;;;4887348;29;20053;-64
2022/01/22 10:11:27;;;;;;;9.82;2.88;;;;;;;;;;4913956;29;20064;-64
2022/01/22 10:14:17;;;;;;;7.72;2.60;;;;;;;;;;4887059;29;20544;-65
2022/01/22 10:16:48;;;;;;;10.32;2.88;;;;;;;;;;4890618;29;20070;-64
2022/01/22 10:19:24;;;;;;;7.07;2.60;;;;;;;;;;4893425;29;20055;-65
2022/01/22 10:22:00;;;;;;;6.90;2.65;;;;;;;;;;4913216;29;20063;-64
2022/01/22 10:30:03;;;;;;;6.50;2.25;;;;;;;;;;4912892;29;20442;-64
2022/01/22 10:35:30;;;;;;;6.38;1.67;;;;;;;;;;4969536;28;20055;-64
2022/01/22 10:38:44;;;;;;;2.55;1.23;;;;;;;;;;4991694;28;20114;-65
2022/01/22 10:41:18;;;;;;;7.95;1.35;;;;;;;;;;5034090;28;20065;-65
2022/01/22 10:43:55;;;;;;;6.25;1.27;;;;;;;;;;5013846;28;20397;-65
2022/01/22 10:49:01;;;;;;;4.10;1.50;;;;;;;;;;5040752;28;20378;-65
2022/01/22 10:51:53;;;;;;;4.32;1.35;;;;;;;;;;5042310;28;20048;-65
2022/01/22 10:54:26;;;;;;;2.90;1.30;;;;;;;;;;5017747;28;20053;-64
2022/01/22 10:57:20;;;;;;;8.00;1.50;;;;;;;;;;5031452;28;20045;-65
2022/01/22 10:59:53;;;;;;;4.45;1.27;;;;;;;;;;5038797;28;20045;-64
2022/01/22 11:02:38;;;;;;;3.50;1.15;;;;;;;;;;5040572;28;20049;-65
2022/01/22 11:05:08;;;;;;;5.13;1.40;;;;;;;;;;5041096;28;20048;-65
2022/01/22 11:07:38;;;;;;;2.63;1.13;;;;;;;;;;5043716;28;20049;-65
2022/01/22 11:10:10;;;;;;;3.25;1.30;;;;;;;;;;5042764;28;20041;-65
2022/01/22 11:12:40;;;;;;;4.45;1.27;;;;;;;;;;5016415;28;20052;-65
2022/01/22 11:15:11;;;;;;;3.35;1.40;;;;;;;;;;5037123;28;20532;-65
2022/01/22 11:17:41;;;;;;;4.85;1.30;;;;;;;;;;5044629;28;20071;-65
2022/01/22 11:20:13;;;;;;;7.00;1.13;;;;;;;;;;5037016;28;20416;-64
2022/01/22 11:22:44;;;;;;;3.67;1.10;;;;;;;;;;5034965;28;20384;-64
2022/01/22 11:25:15;;;;;;;3.20;1.08;;;;;;;;;;5013456;28;20513;-64
2022/01/22 11:27:47;;;;;;;3.15;1.20;;;;;;;;;;4987692;28;20060;-65
2022/01/22 11:30:19;;;;;;;2.85;0.82;;;;;;;;;;5012459;28;20053;-64
2022/01/22 11:32:52;;;;;;;5.65;1.17;;;;;;;;;;5024347;28;20045;-65
2022/01/22 11:35:49;;;;;;;2.78;0.80;;;;;;;;;;5044789;28;20037;-65
2022/01/22 11:38:30;;;;;;;2.25;1.02;;;;;;;;;;5043324;28;20060;-65
2022/01/22 11:41:19;;;;;;;3.15;0.90;;;;;;;;;;5042173;28;20044;-65
2022/01/22 11:44:10;;;;;;;2.10;0.95;;;;;;;;;;5019440;28;20062;-64
2022/01/22 11:46:46;;;;;;;4.93;0.85;;;;;;;;;;4992406;28;20445;-65
2022/01/22 11:49:26;;;;;;;6.07;1.30;;;;;;;;;;5025056;28;20157;-65
2022/01/22 11:52:09;;;;;;;5.20;0.88;;;;;;;;;;4983305;28;20050;-65
2022/01/22 11:54:54;;;;;;;5.90;0.88;;;;;;;;;;4988017;28;20094;-65
2022/01/22 11:57:31;;;;;;;3.95;1.00;;;;;;;;;;4930904;29;20056;-67
2022/01/22 12:00:27;;;;;;;3.47;0.80;;;;;;;;;;4923441;29;20063;-65
2022/01/22 12:03:09;;;;;;;6.13;1.23;;;;;;;;;;4934895;29;20440;-65
2022/01/22 12:06:06;;;;;;;2.65;0.82;;;;;;;;;;4930446;29;20040;-64
2022/01/22 12:09:05;;;;;;;1.90;0.70;;;;;;;;;;4899841;29;20058;-65
2022/01/22 12:14:53;;;;;;;1.92;0.82;;;;;;;;;;4943449;28;20538;-64
2022/01/22 12:18:04;;;;;;;5.70;0.80;;;;;;;;;;4907504;28;20062;-65
2022/01/22 12:23:12;;;;;;;2.78;1.10;;;;;;;;;;4969662;28;20538;-64
2022/01/22 12:25:42;;;;;;;0.75;0.55;;;;;;;;;;4953460;28;20055;-64
2022/01/22 12:28:32;;;;;;;3.17;0.80;;;;;;;;;;4963083;28;20426;-64
2022/01/22 12:31:07;;;;;;;40.08;25.55;;;;;;;;;;4995622;28;20057;-65
2022/01/22 12:33:38;;;;;;;5.68;1.20;;;;;;;;;;4988562;28;20051;-64
2022/01/22 12:36:21;;;;;;;1.92;0.95;;;;;;;;;;4988886;28;20058;-74
2022/01/22 12:39:04;;;;;;;2.42;1.08;;;;;;;;;;4940966;28;20058;-65
2022/01/22 12:44:50;;;;;;;1.45;0.82;;;;;;;;;;4989071;28;20062;-65
2022/01/22 12:47:19;;;;;;;2.10;0.68;;;;;;;;;;4987272;28;20062;-66
2022/01/22 12:50:08;;;;;;;3.00;0.70;;;;;;;;;;4941083;28;20080;-65
2022/01/22 12:52:41;;;;;;;3.75;0.60;;;;;;;;;;4959655;28;20054;-66
2022/01/22 12:55:26;;;;;;;1.40;0.50;;;;;;;;;;4992483;28;20053;-65
2022/01/22 12:58:00;;;;;;;1.23;0.75;;;;;;;;;;4976931;28;20058;-65
2022/01/22 13:00:31;;;;;;;6.05;0.52;;;;;;;;;;4960200;28;20061;-65
2022/01/22 13:03:01;;;;;;;1.55;0.60;;;;;;;;;;4992194;28;20449;-67
2022/01/22 13:05:31;;;;;;;1.58;0.43;;;;;;;;;;5007692;28;20061;-65
2022/01/22 13:08:29;;;;;;;7.28;0.85;;;;;;;;;;5031624;28;20061;-65
2022/01/22 13:11:18;;;;;;;1.02;0.60;;;;;;;;;;5011277;28;20675;-65
2022/01/22 13:13:50;;;;;;;1.13;0.63;;;;;;;;;;4972477;28;20411;-66
2022/01/22 13:16:21;;;;;;;2.78;0.80;;;;;;;;;;4924803;28;20053;-65
2022/01/22 13:18:58;;;;;;;1.10;0.73;;;;;;;;;;4972414;28;20066;-68
2022/01/22 13:21:31;;;;;;;1.30;0.80;;;;;;;;;;4972747;28;20065;-75
2022/01/22 13:24:08;;;;;;;2.85;0.77;;;;;;;;;;4972740;28;20540;-68
2022/01/22 13:26:45;;;;;;;2.15;0.55;;;;;;;;;;4972429;28;20175;-65
2022/01/22 13:29:20;;;;;;;1.83;1.20;;;;;;;;;;4972260;28;20066;-65
2022/01/22 13:31:59;;;;;;;2.28;0.65;;;;;;;;;;4972175;28;20578;-70
2022/01/22 13:34:37;;;;;;;0.50;0.43;;;;;;;;;;4972125;28;20058;-67
2022/01/22 13:48:08;;;;;;;3.03;0.80;;;;;;;;;;4971958;28;20051;-70
2022/01/22 13:50:52;;;;;;;2.15;0.80;;;;;;;;;;4971926;28;20070;-72
2022/01/22 13:53:24;;;;;;;2.65;0.50;;;;;;;;;;4971980;28;20106;-72
2022/01/22 13:56:09;;;;;;;2.45;0.50;;;;;;;;;;4988061;28;20492;-73
2022/01/22 13:58:39;;;;;;;2.60;0.93;;;;;;;;;;4971653;28;20058;-68
2022/01/22 14:01:42;;;;;;;2.67;0.52;;;;;;;;;;4971977;28;20112;-69
2022/01/22 14:04:14;;;;;;;3.00;0.52;;;;;;;;;;4971505;28;20051;-76
2022/01/22 14:06:46;;;;;;;3.90;0.80;;;;;;;;;;4955413;28;20059;-68
2022/01/22 14:09:19;;;;;;;3.47;0.60;;;;;;;;;;4971769;28;20050;-68
2022/01/22 14:12:15;;;;;;;3.33;0.88;;;;;;;;;;4971740;28;20537;-73
2022/01/22 14:15:17;;;;;;;3.35;0.52;;;;;;;;;;4971683;28;20066;-66
2022/01/22 14:18:14;;;;;;;1.02;0.47;;;;;;;;;;4936289;29;20051;-70
2022/01/22 14:20:53;;;;;;;1.77;0.65;;;;;;;;;;4951945;29;20062;-72
2022/01/22 14:23:24;;;;;;;1.40;0.60;;;;;;;;;;4970998;28;20517;-66
2022/01/22 14:26:08;;;;;;;4.78;1.00;;;;;;;;;;4955067;28;20054;-68
2022/01/22 14:28:48;;;;;;;1.25;0.70;;;;;;;;;;4971646;28;20067;-71
2022/01/22 14:31:29;;;;;;;2.50;0.52;;;;;;;;;;4939168;28;20054;-66
2022/01/22 14:34:31;;;;;;;0.82;0.45;;;;;;;;;;4970909;28;20065;-72
2022/01/22 14:37:05;;;;;;;4.00;0.50;;;;;;;;;;4939566;28;20062;-67
2022/01/22 14:45:35;;;;;;;3.10;0.50;;;;;;;;;;4971254;28;20050;-65
2022/01/22 14:48:06;;;;;;;0.80;0.43;;;;;;;;;;4970663;28;20055;-66
2022/01/22 14:50:37;;;;;;;3.33;0.70;;;;;;;;;;4970639;28;20088;-66
2022/01/22 14:53:10;;;;;;;2.30;0.50;;;;;;;;;;4972810;28;20051;-65
2022/01/22 14:55:50;;;;;;;1.38;0.38;;;;;;;;;;5033251;28;20041;-67
2022/01/22 14:58:20;;;;;;;2.35;0.40;;;;;;;;;;5049506;28;20057;-66
2022/01/22 15:00:52;;;;;;;3.72;0.65;;;;;;;;;;5048984;28;20116;-66
2022/01/22 15:03:23;;;;;;;2.95;0.47;;;;;;;;;;4977112;28;20387;-67
2022/01/22 15:05:55;;;;;;;1.27;0.70;;;;;;;;;;5009717;28;20783;-69
2022/01/22 15:08:28;;;;;;;2.42;0.57;;;;;;;;;;5009736;28;20050;-72
2022/01/22 15:10:58;;;;;;;2.92;0.80;;;;;;;;;;5009410;28;20438;-65
2022/01/22 15:13:29;;;;;;;4.80;0.75;;;;;;;;;;4977218;28;20057;-68
2022/01/22 15:16:01;;;;;;;1.10;0.50;;;;;;;;;;4992782;28;20475;-67
2022/01/22 15:21:14;;;;;;;2.00;0.63;;;;;;;;;;4980941;28;20510;-66
2022/01/22 15:23:45;;;;;;;2.08;0.50;;;;;;;;;;5009207;28;20053;-65
2022/01/22 15:26:15;;;;;;;2.50;0.50;;;;;;;;;;4958857;28;20614;-65
2022/01/22 15:28:46;;;;;;;2.05;0.60;;;;;;;;;;5028975;28;20064;-72
2022/01/22 15:31:29;;;;;;;;;;;;;;;;;;4997463;28;20057;-66
2022/01/22 15:37:01;;;;;;;5.20;0.77;;;;;;;;;;4994208;28;20057;-65
2022/01/22 15:39:32;;;;;;;1.13;0.60;;;;;;;;;;4960716;28;20414;-65
2022/01/22 15:42:05;;;;;;;2.00;0.50;;;;;;;;;;5046285;28;20160;-66
2022/01/22 15:44:36;;;;;;;1.42;0.47;;;;;;;;;;5048763;28;20053;-67
2022/01/22 15:47:06;;;;;;;1.02;0.60;;;;;;;;;;5048640;28;20152;-70
2022/01/22 15:49:39;;;;;;;3.53;0.57;;;;;;;;;;5048691;28;20061;-66
2022/01/22 15:52:11;;;;;;;1.67;0.55;;;;;;;;;;4999902;28;20061;-66
2022/01/22 15:54:43;;;;;;;0.95;0.43;;;;;;;;;;5031737;28;20056;-64
2022/01/22 15:57:15;;;;;;;3.00;1.08;;;;;;;;;;5032710;28;20072;-65
2022/01/22 15:59:49;;;;;;;0.75;0.45;;;;;;;;;;5048473;28;20061;-66
2022/01/22 16:02:20;;;;;;;1.40;0.68;;;;;;;;;;5048614;28;20056;-65
2022/01/22 16:04:52;;;;;;;2.42;0.88;;;;;;;;;;5032327;28;20509;-67
2022/01/22 16:07:23;;;;;;;3.85;0.63;;;;;;;;;;4999225;28;20064;-65
2022/01/22 16:10:14;;;;;;;4.22;0.80;;;;;;;;;;5048468;28;20056;-66
2022/01/22 16:12:44;;;;;;;2.80;0.63;;;;;;;;;;5048546;28;20072;-67
2022/01/22 16:15:15;;;;;;;0.65;0.52;;;;;;;;;;5044454;28;20065;-65
2022/01/22 16:17:46;;;;;;;2.30;0.45;;;;;;;;;;5032325;28;20056;-68
2022/01/22 16:20:17;;;;;;;6.78;0.52;;;;;;;;;;5015785;28;20060;-68
2022/01/22 16:22:48;;;;;;;1.55;0.55;;;;;;;;;;5048134;28;20049;-66
2022/01/22 16:25:19;;;;;;;1.90;0.60;;;;;;;;;;5048387;28;20096;-66
2022/01/22 16:27:49;;;;;;;4.78;0.55;;;;;;;;;;5036248;28;20516;-65
2022/01/22 16:30:19;;;;;;;2.55;0.82;;;;;;;;;;5052022;28;20068;-66
2022/01/22 16:32:49;;;;;;;2.15;0.73;;;;;;;;;;5052341;28;20044;-66
2022/01/22 16:35:20;;;;;;;0.80;0.50;;;;;;;;;;5052219;28;20061;-67
2022/01/22 16:37:50;;;;;;;0.95;0.57;;;;;;;;;;5019017;28;20188;-65
2022/01/22 16:40:24;;;;;;;1.30;0.38;;;;;;;;;;5052062;28;20119;-65
2022/01/22 16:43:03;;;;;;;2.72;0.60;;;;;;;;;;5035989;28;20406;-67
2022/01/22 16:56:50;;;;;;;0.90;0.73;;;;;;;;;;5051831;28;20045;-66
2022/01/22 16:59:40;;;;;;;1.67;0.50;;;;;;;;;;5052548;28;20061;-65
2022/01/22 17:02:15;;;;;;;2.63;0.88;;;;;;;;;;5054014;28;20044;-64
2022/01/22 17:04:53;;;;;;;1.50;0.50;;;;;;;;;;4986729;28;20055;-65
2022/01/22 17:07:37;;;;;;;1.30;0.52;;;;;;;;;;5052754;28;20033;-66
2022/01/22 17:15:29;;;;;;;1.88;0.60;;;;;;;;;;5034967;28;20056;-65
2022/01/22 17:18:00;;;;;;;2.00;0.73;;;;;;;;;;5019838;28;20056;-64
2022/01/22 17:20:31;;;;;;;1.33;0.60;;;;;;;;;;5053542;28;20503;-64
2022/01/22 17:23:01;;;;;;;1.88;0.60;;;;;;;;;;5034838;28;20080;-65
2022/01/22 17:25:32;;;;;;;1.13;0.43;;;;;;;;;;5031192;28;20089;-64
2022/01/22 17:28:08;;;;;;;1.10;0.70;;;;;;;;;;5031027;28;20112;-64
2022/01/22 17:30:39;;;;;;;2.80;0.38;;;;;;;;;;4991554;28;20569;-64
2022/01/22 17:33:10;;;;;;;1.88;0.50;;;;;;;;;;4960517;28;20126;-65
2022/01/22 17:35:40;;;;;;;1.70;0.60;;;;;;;;;;4975999;28;20054;-64
2022/01/22 17:38:10;;;;;;;1.92;0.50;;;;;;;;;;4990952;28;20069;-68
2022/01/22 17:40:47;;;;;;;2.80;0.52;;;;;;;;;;4959877;28;20046;-64
2022/01/22 17:43:18;;;;;;;1.73;0.75;;;;;;;;;;4952560;28;20055;-65
2022/01/22 17:45:48;;;;;;;1.55;0.55;;;;;;;;;;4952762;28;20055;-65
2022/01/22 17:48:18;;;;;;;2.60;0.55;;;;;;;;;;4952693;28;20059;-63
2022/01/22 17:50:49;;;;;;;0.82;0.43;;;;;;;;;;4952620;28;20504;-66
2022/01/22 17:53:19;;;;;;;3.75;0.43;;;;;;;;;;4952796;28;20128;-66
2022/01/22 17:55:51;;;;;;;1.05;0.52;;;;;;;;;;4905688;28;20063;-64
2022/01/22 17:58:21;;;;;;;3.38;0.55;;;;;;;;;;4920797;29;20051;-65
2022/01/22 18:01:09;;;;;;;2.03;0.50;;;;;;;;;;4952283;28;20056;-66
2022/01/22 18:03:49;;;;;;;0.75;0.52;;;;;;;;;;4954688;28;20514;-65
2022/01/22 18:06:27;;;;;;;2.50;0.43;;;;;;;;;;4963349;28;20531;-64
2022/01/22 18:08:58;;;;;;;1.45;0.68;;;;;;;;;;5021881;28;20057;-66
2022/01/22 18:11:29;;;;;;;2.60;0.80;;;;;;;;;;5010471;28;20058;-65
2022/01/22 18:14:05;;;;;;;1.13;0.60;;;;;;;;;;5010245;28;20061;-65
2022/01/22 18:16:37;;;;;;;0.63;0.40;;;;;;;;;;4961754;28;20532;-64
2022/01/22 18:19:08;;;;;;;1.17;0.73;;;;;;;;;;4978924;28;20050;-66